sensor_id;sensor_type;location;lat;lon;timestamp;temperature;humidity
7129;DHT22;3606;52.930;8.644;2024-03-22T00:00:41;9.70;99.90
7129;DHT22;3606;52.930;8.644;2024-03-22T00:03:07;9.70;99.90
7129;DHT22;3606;52.930;8.644;2024-03-22T00:05:32;9.70;99.90
7129;DHT22;3606;52.930;8.644;2024-03-22T00:07:58;9.60;99.90
7129;DHT22;3606;52.930;8.644;2024-03-22T00:10:24;9.70;99.90
7129;DHT22;3606;52.930;8.644;2024-03-22T00:12:49;9.70;99.90
7129;DHT22;3606;52.930;8.644;2024-03-22T00:15:15;9.60;99.90
7129;DHT22;3606;52.930;8.644;2024-03-22T00:17:43;9.70;99.90
7129;DHT22;3606;52.930;8.644;2024-03-22T00:20:09;9.80;99.90
7129;DHT22;3606;52.930;8.644;2024-03-22T00:22:34;9.70;99.90
7129;DHT22;3606;52.930;8.644;2024-03-22T00:25:00;9.70;99.90
7129;DHT22;3606;52.930;8.644;2024-03-22T00:27:26;9.70;99.90
7129;DHT22;3606;52.930;8.644;2024-03-22T00:29:51;9.80;99.90
7129;DHT22;3606;52.930;8.644;2024-03-22T00:32:17;9.80;99.90
7129;DHT22;3606;52.930;8.644;2024-03-22T00:34:42;9.80;99.90
7129;DHT22;3606;52.930;8.644;2024-03-22T00:37:09;9.70;99.90
7129;DHT22;3606;52.930;8.644;2024-03-22T00:39:34;9.80;99.90
7129;DHT22;3606;52.930;8.644;2024-03-22T00:42:01;9.80;99.90
7129;DHT22;3606;52.930;8.644;2024-03-22T00:44:26;9.80;99.90
7129;DHT22;3606;52.930;8.644;2024-03-22T00:46:52;9.80;99.90
7129;DHT22;3606;52.930;8.644;2024-03-22T00:49:18;9.80;99.90
7129;DHT22;3606;52.930;8.644;2024-03-22T00:51:43;9.80;99.90
7129;DHT22;3606;52.930;8.644;2024-03-22T00:54:10;9.80;99.90
7129;DHT22;3606;52.930;8.644;2024-03-22T00:56:36;9.90;99.90
7129;DHT22;3606;52.930;8.644;2024-03-22T00:59:01;9.90;99.90
7129;DHT22;3606;52.930;8.644;2024-03-22T01:01:27;9.90;99.90
7129;DHT22;3606;52.930;8.644;2024-03-22T01:03:53;9.90;99.90
7129;DHT22;3606;52.930;8.644;2024-03-22T01:06:18;9.90;99.90
7129;DHT22;3606;52.930;8.644;2024-03-22T01:08:50;9.80;99.90
7129;DHT22;3606;52.930;8.644;2024-03-22T01:11:17;9.90;99.90
7129;DHT22;3606;52.930;8.644;2024-03-22T01:13:43;9.90;99.90
7129;DHT22;3606;52.930;8.644;2024-03-22T01:16:08;9.90;99.90
7129;DHT22;3606;52.930;8.644;2024-03-22T01:18:38;9.90;99.90
7129;DHT22;3606;52.930;8.644;2024-03-22T01:21:04;9.90;99.90
7129;DHT22;3606;52.930;8.644;2024-03-22T01:23:30;9.90;99.90
7129;DHT22;3606;52.930;8.644;2024-03-22T01:25:56;9.90;99.90
7129;DHT22;3606;52.930;8.644;2024-03-22T01:28:22;9.90;99.90
7129;DHT22;3606;52.930;8.644;2024-03-22T01:30:47;9.90;99.90
7129;DHT22;3606;52.930;8.644;2024-03-22T01:33:13;9.90;99.90
7129;DHT22;3606;52.930;8.644;2024-03-22T01:35:39;9.90;99.90
7129;DHT22;3606;52.930;8.644;2024-03-22T01:38:04;9.90;99.90
7129;DHT22;3606;52.930;8.644;2024-03-22T01:40:30;10.00;99.90
7129;DHT22;3606;52.930;8.644;2024-03-22T01:42:57;9.90;99.90
7129;DHT22;3606;52.930;8.644;2024-03-22T01:45:22;9.90;99.90
7129;DHT22;3606;52.930;8.644;2024-03-22T01:47:53;9.90;99.90
7129;DHT22;3606;52.930;8.644;2024-03-22T01:50:21;10.00;99.90
7129;DHT22;3606;52.930;8.644;2024-03-22T01:52:46;10.00;99.90
7129;DHT22;3606;52.930;8.644;2024-03-22T01:55:12;9.90;99.90
7129;DHT22;3606;52.930;8.644;2024-03-22T01:57:38;9.90;99.90
7129;DHT22;3606;52.930;8.644;2024-03-22T02:00:04;9.90;99.90
7129;DHT22;3606;52.930;8.644;2024-03-22T02:02:30;9.80;99.90
7129;DHT22;3606;52.930;8.644;2024-03-22T02:04:56;9.80;99.90
7129;DHT22;3606;52.930;8.644;2024-03-22T02:07:22;9.80;99.90
7129;DHT22;3606;52.930;8.644;2024-03-22T02:09:48;9.70;99.90
7129;DHT22;3606;52.930;8.644;2024-03-22T02:12:13;9.70;99.90
7129;DHT22;3606;52.930;8.644;2024-03-22T02:14:40;9.70;99.90
7129;DHT22;3606;52.930;8.644;2024-03-22T02:17:07;9.70;99.90
7129;DHT22;3606;52.930;8.644;2024-03-22T02:19:32;9.70;99.90
7129;DHT22;3606;52.930;8.644;2024-03-22T02:21:58;9.80;99.90
7129;DHT22;3606;52.930;8.644;2024-03-22T02:24:24;9.80;99.90
7129;DHT22;3606;52.930;8.644;2024-03-22T02:26:49;9.90;99.90
7129;DHT22;3606;52.930;8.644;2024-03-22T02:29:15;9.90;99.90
7129;DHT22;3606;52.930;8.644;2024-03-22T02:31:40;9.90;99.90
7129;DHT22;3606;52.930;8.644;2024-03-22T02:34:06;9.90;99.90
7129;DHT22;3606;52.930;8.644;2024-03-22T02:36:32;9.90;99.90
7129;DHT22;3606;52.930;8.644;2024-03-22T02:38:57;10.00;99.90
7129;DHT22;3606;52.930;8.644;2024-03-22T02:41:23;10.00;99.90
7129;DHT22;3606;52.930;8.644;2024-03-22T02:43:48;10.00;99.90
7129;DHT22;3606;52.930;8.644;2024-03-22T02:46:14;10.00;99.90
7129;DHT22;3606;52.930;8.644;2024-03-22T02:48:39;10.00;99.90
7129;DHT22;3606;52.930;8.644;2024-03-22T02:51:05;9.90;99.90
7129;DHT22;3606;52.930;8.644;2024-03-22T02:53:31;9.90;99.90
7129;DHT22;3606;52.930;8.644;2024-03-22T02:56:00;9.80;99.90
7129;DHT22;3606;52.930;8.644;2024-03-22T02:58:25;9.80;99.90
7129;DHT22;3606;52.930;8.644;2024-03-22T03:00:51;9.70;99.90
7129;DHT22;3606;52.930;8.644;2024-03-22T03:03:16;9.70;99.90
7129;DHT22;3606;52.930;8.644;2024-03-22T03:05:42;9.80;99.90
7129;DHT22;3606;52.930;8.644;2024-03-22T03:08:09;9.80;99.90
7129;DHT22;3606;52.930;8.644;2024-03-22T03:10:35;9.90;99.90
7129;DHT22;3606;52.930;8.644;2024-03-22T03:13:01;9.90;99.90
7129;DHT22;3606;52.930;8.644;2024-03-22T03:15:26;10.00;99.90
7129;DHT22;3606;52.930;8.644;2024-03-22T03:17:52;10.00;99.90
7129;DHT22;3606;52.930;8.644;2024-03-22T03:20:18;10.10;99.90
7129;DHT22;3606;52.930;8.644;2024-03-22T03:22:43;10.10;99.90
7129;DHT22;3606;52.930;8.644;2024-03-22T03:25:09;10.20;99.90
7129;DHT22;3606;52.930;8.644;2024-03-22T03:27:34;10.20;99.90
7129;DHT22;3606;52.930;8.644;2024-03-22T03:30:00;10.20;99.90
7129;DHT22;3606;52.930;8.644;2024-03-22T03:32:27;10.20;99.90
7129;DHT22;3606;52.930;8.644;2024-03-22T03:34:52;10.30;99.90
7129;DHT22;3606;52.930;8.644;2024-03-22T03:37:18;10.30;99.90
7129;DHT22;3606;52.930;8.644;2024-03-22T03:39:43;10.30;99.90
7129;DHT22;3606;52.930;8.644;2024-03-22T03:42:10;10.30;99.90
7129;DHT22;3606;52.930;8.644;2024-03-22T03:44:35;10.30;99.90
7129;DHT22;3606;52.930;8.644;2024-03-22T03:47:02;10.30;99.90
7129;DHT22;3606;52.930;8.644;2024-03-22T03:49:27;10.40;99.90
7129;DHT22;3606;52.930;8.644;2024-03-22T03:51:53;10.30;99.90
7129;DHT22;3606;52.930;8.644;2024-03-22T03:54:19;10.30;99.90
7129;DHT22;3606;52.930;8.644;2024-03-22T03:56:44;10.30;99.90
7129;DHT22;3606;52.930;8.644;2024-03-22T03:59:10;10.40;99.90
7129;DHT22;3606;52.930;8.644;2024-03-22T04:01:36;10.40;99.90
7129;DHT22;3606;52.930;8.644;2024-03-22T04:04:02;10.40;99.90
7129;DHT22;3606;52.930;8.644;2024-03-22T04:06:28;10.40;99.90
7129;DHT22;3606;52.930;8.644;2024-03-22T04:08:54;10.50;99.90
7129;DHT22;3606;52.930;8.644;2024-03-22T04:11:19;10.40;99.90
7129;DHT22;3606;52.930;8.644;2024-03-22T04:13:45;10.50;99.90
7129;DHT22;3606;52.930;8.644;2024-03-22T04:16:10;10.50;99.90
7129;DHT22;3606;52.930;8.644;2024-03-22T04:18:36;10.50;99.90
7129;DHT22;3606;52.930;8.644;2024-03-22T04:21:02;10.50;99.90
7129;DHT22;3606;52.930;8.644;2024-03-22T04:23:27;10.40;99.90
7129;DHT22;3606;52.930;8.644;2024-03-22T04:25:54;10.50;99.90
7129;DHT22;3606;52.930;8.644;2024-03-22T04:28:20;10.40;99.90
7129;DHT22;3606;52.930;8.644;2024-03-22T04:31:06;10.50;99.90
7129;DHT22;3606;52.930;8.644;2024-03-22T04:33:33;10.50;99.90
7129;DHT22;3606;52.930;8.644;2024-03-22T04:36:00;10.50;99.90
7129;DHT22;3606;52.930;8.644;2024-03-22T04:38:26;10.60;99.90
7129;DHT22;3606;52.930;8.644;2024-03-22T04:40:52;10.50;99.90
7129;DHT22;3606;52.930;8.644;2024-03-22T04:43:18;10.50;99.90
7129;DHT22;3606;52.930;8.644;2024-03-22T04:45:46;10.50;99.90
7129;DHT22;3606;52.930;8.644;2024-03-22T04:48:22;10.50;99.90
7129;DHT22;3606;52.930;8.644;2024-03-22T04:50:51;10.50;99.90
7129;DHT22;3606;52.930;8.644;2024-03-22T04:53:19;10.60;99.90
7129;DHT22;3606;52.930;8.644;2024-03-22T04:55:46;10.60;99.90
7129;DHT22;3606;52.930;8.644;2024-03-22T04:58:19;10.60;99.90
7129;DHT22;3606;52.930;8.644;2024-03-22T05:00:46;10.50;99.90
7129;DHT22;3606;52.930;8.644;2024-03-22T05:03:12;10.60;99.90
7129;DHT22;3606;52.930;8.644;2024-03-22T05:05:38;10.60;99.90
7129;DHT22;3606;52.930;8.644;2024-03-22T05:08:05;10.60;99.90
7129;DHT22;3606;52.930;8.644;2024-03-22T05:10:31;10.60;99.90
7129;DHT22;3606;52.930;8.644;2024-03-22T05:12:57;10.60;99.90
7129;DHT22;3606;52.930;8.644;2024-03-22T05:15:23;10.60;99.90
7129;DHT22;3606;52.930;8.644;2024-03-22T05:17:51;10.50;99.90
7129;DHT22;3606;52.930;8.644;2024-03-22T05:20:17;10.60;99.90
7129;DHT22;3606;52.930;8.644;2024-03-22T05:22:42;10.60;99.90
7129;DHT22;3606;52.930;8.644;2024-03-22T05:25:08;10.60;99.90
7129;DHT22;3606;52.930;8.644;2024-03-22T05:27:34;10.60;99.90
7129;DHT22;3606;52.930;8.644;2024-03-22T05:30:00;10.70;99.90
7129;DHT22;3606;52.930;8.644;2024-03-22T05:32:26;10.60;99.90
7129;DHT22;3606;52.930;8.644;2024-03-22T05:34:52;10.70;99.90
7129;DHT22;3606;52.930;8.644;2024-03-22T05:37:18;10.70;99.90
7129;DHT22;3606;52.930;8.644;2024-03-22T05:39:43;10.70;99.90
7129;DHT22;3606;52.930;8.644;2024-03-22T05:42:09;10.70;99.90
7129;DHT22;3606;52.930;8.644;2024-03-22T05:44:35;10.70;99.90
7129;DHT22;3606;52.930;8.644;2024-03-22T05:47:01;10.70;99.90
7129;DHT22;3606;52.930;8.644;2024-03-22T05:49:26;10.70;99.90
7129;DHT22;3606;52.930;8.644;2024-03-22T05:51:52;10.70;99.90
7129;DHT22;3606;52.930;8.644;2024-03-22T05:54:18;10.70;99.90
7129;DHT22;3606;52.930;8.644;2024-03-22T05:56:44;10.80;99.90
7129;DHT22;3606;52.930;8.644;2024-03-22T05:59:09;10.80;99.90
7129;DHT22;3606;52.930;8.644;2024-03-22T06:01:36;10.80;99.90
7129;DHT22;3606;52.930;8.644;2024-03-22T06:04:03;10.80;99.90
7129;DHT22;3606;52.930;8.644;2024-03-22T06:06:29;10.80;99.90
7129;DHT22;3606;52.930;8.644;2024-03-22T06:08:54;10.80;99.90
7129;DHT22;3606;52.930;8.644;2024-03-22T06:11:22;10.90;99.90
7129;DHT22;3606;52.930;8.644;2024-03-22T06:13:48;10.90;99.90
7129;DHT22;3606;52.930;8.644;2024-03-22T06:16:14;11.00;99.90
7129;DHT22;3606;52.930;8.644;2024-03-22T06:18:40;11.00;99.90
7129;DHT22;3606;52.930;8.644;2024-03-22T06:21:06;11.10;99.90
7129;DHT22;3606;52.930;8.644;2024-03-22T06:23:32;11.10;99.90
7129;DHT22;3606;52.930;8.644;2024-03-22T06:25:58;11.10;99.90
7129;DHT22;3606;52.930;8.644;2024-03-22T06:28:26;11.10;99.90
7129;DHT22;3606;52.930;8.644;2024-03-22T06:30:52;11.10;99.90
7129;DHT22;3606;52.930;8.644;2024-03-22T06:33:17;11.20;99.90
7129;DHT22;3606;52.930;8.644;2024-03-22T06:35:43;11.20;99.90
7129;DHT22;3606;52.930;8.644;2024-03-22T06:38:09;11.20;99.90
7129;DHT22;3606;52.930;8.644;2024-03-22T06:40:35;11.20;99.90
7129;DHT22;3606;52.930;8.644;2024-03-22T06:43:00;11.20;99.90
7129;DHT22;3606;52.930;8.644;2024-03-22T06:45:26;11.20;99.90
7129;DHT22;3606;52.930;8.644;2024-03-22T06:47:52;11.30;99.90
7129;DHT22;3606;52.930;8.644;2024-03-22T06:50:17;11.20;99.90
7129;DHT22;3606;52.930;8.644;2024-03-22T06:52:43;11.20;99.90
7129;DHT22;3606;52.930;8.644;2024-03-22T06:55:09;11.00;99.90
7129;DHT22;3606;52.930;8.644;2024-03-22T06:57:37;11.00;99.90
7129;DHT22;3606;52.930;8.644;2024-03-22T07:00:02;11.00;99.90
7129;DHT22;3606;52.930;8.644;2024-03-22T07:02:28;11.00;99.90
7129;DHT22;3606;52.930;8.644;2024-03-22T07:04:54;11.00;99.90
7129;DHT22;3606;52.930;8.644;2024-03-22T07:07:20;11.00;99.90
7129;DHT22;3606;52.930;8.644;2024-03-22T07:09:45;10.90;99.90
7129;DHT22;3606;52.930;8.644;2024-03-22T07:12:13;10.90;99.90
7129;DHT22;3606;52.930;8.644;2024-03-22T07:14:38;10.90;99.90
7129;DHT22;3606;52.930;8.644;2024-03-22T07:17:04;10.90;99.90
7129;DHT22;3606;52.930;8.644;2024-03-22T07:19:30;10.80;99.90
7129;DHT22;3606;52.930;8.644;2024-03-22T07:21:56;10.90;99.90
7129;DHT22;3606;52.930;8.644;2024-03-22T07:24:23;10.80;99.90
7129;DHT22;3606;52.930;8.644;2024-03-22T07:26:49;10.80;99.90
7129;DHT22;3606;52.930;8.644;2024-03-22T07:29:15;10.80;99.90
7129;DHT22;3606;52.930;8.644;2024-03-22T07:31:41;10.80;99.90
7129;DHT22;3606;52.930;8.644;2024-03-22T07:34:06;10.90;99.90
7129;DHT22;3606;52.930;8.644;2024-03-22T07:36:37;10.90;99.90
7129;DHT22;3606;52.930;8.644;2024-03-22T07:39:03;10.90;99.90
7129;DHT22;3606;52.930;8.644;2024-03-22T07:41:32;10.90;99.90
7129;DHT22;3606;52.930;8.644;2024-03-22T07:43:58;10.90;99.90
7129;DHT22;3606;52.930;8.644;2024-03-22T07:46:24;10.80;99.90
7129;DHT22;3606;52.930;8.644;2024-03-22T07:48:50;10.80;99.90
7129;DHT22;3606;52.930;8.644;2024-03-22T07:51:15;10.90;99.90
7129;DHT22;3606;52.930;8.644;2024-03-22T07:53:41;10.90;99.90
7129;DHT22;3606;52.930;8.644;2024-03-22T07:56:07;11.00;99.90
7129;DHT22;3606;52.930;8.644;2024-03-22T07:58:32;11.10;99.90
7129;DHT22;3606;52.930;8.644;2024-03-22T08:00:58;11.10;99.90
7129;DHT22;3606;52.930;8.644;2024-03-22T08:03:23;11.00;99.90
7129;DHT22;3606;52.930;8.644;2024-03-22T08:05:50;11.10;99.90
7129;DHT22;3606;52.930;8.644;2024-03-22T08:08:15;11.20;99.90
7129;DHT22;3606;52.930;8.644;2024-03-22T08:10:41;11.20;99.90
7129;DHT22;3606;52.930;8.644;2024-03-22T08:13:07;11.30;99.90
7129;DHT22;3606;52.930;8.644;2024-03-22T08:15:32;11.40;99.90
7129;DHT22;3606;52.930;8.644;2024-03-22T08:17:58;11.50;99.90
7129;DHT22;3606;52.930;8.644;2024-03-22T08:20:24;11.50;99.90
7129;DHT22;3606;52.930;8.644;2024-03-22T08:22:50;11.50;99.90
7129;DHT22;3606;52.930;8.644;2024-03-22T08:25:15;11.40;99.90
7129;DHT22;3606;52.930;8.644;2024-03-22T08:27:43;11.30;99.90
7129;DHT22;3606;52.930;8.644;2024-03-22T08:30:10;11.30;99.90
7129;DHT22;3606;52.930;8.644;2024-03-22T08:32:36;11.30;99.90
7129;DHT22;3606;52.930;8.644;2024-03-22T08:35:02;11.30;99.90
7129;DHT22;3606;52.930;8.644;2024-03-22T08:37:30;11.40;99.90
7129;DHT22;3606;52.930;8.644;2024-03-22T08:39:55;11.30;99.90
7129;DHT22;3606;52.930;8.644;2024-03-22T08:42:21;11.30;99.90
7129;DHT22;3606;52.930;8.644;2024-03-22T08:44:47;11.20;99.90
7129;DHT22;3606;52.930;8.644;2024-03-22T08:47:12;11.20;99.90
7129;DHT22;3606;52.930;8.644;2024-03-22T08:49:38;11.20;99.90
7129;DHT22;3606;52.930;8.644;2024-03-22T08:52:04;11.20;99.90
7129;DHT22;3606;52.930;8.644;2024-03-22T08:54:30;11.20;99.90
7129;DHT22;3606;52.930;8.644;2024-03-22T08:56:55;11.30;99.90
7129;DHT22;3606;52.930;8.644;2024-03-22T08:59:21;11.30;99.90
7129;DHT22;3606;52.930;8.644;2024-03-22T09:01:49;11.30;99.90
7129;DHT22;3606;52.930;8.644;2024-03-22T09:04:15;11.20;99.90
7129;DHT22;3606;52.930;8.644;2024-03-22T09:06:41;11.20;99.90
7129;DHT22;3606;52.930;8.644;2024-03-22T09:09:06;11.20;99.90
7129;DHT22;3606;52.930;8.644;2024-03-22T09:11:33;11.20;99.90
7129;DHT22;3606;52.930;8.644;2024-03-22T09:13:59;11.20;99.90
7129;DHT22;3606;52.930;8.644;2024-03-22T09:16:24;11.20;99.90
7129;DHT22;3606;52.930;8.644;2024-03-22T09:18:50;11.20;99.90
7129;DHT22;3606;52.930;8.644;2024-03-22T09:21:16;11.20;99.90
7129;DHT22;3606;52.930;8.644;2024-03-22T09:23:42;11.20;99.90
7129;DHT22;3606;52.930;8.644;2024-03-22T09:26:08;11.30;99.90
7129;DHT22;3606;52.930;8.644;2024-03-22T09:28:33;11.20;99.90
7129;DHT22;3606;52.930;8.644;2024-03-22T09:31:08;11.20;99.90
7129;DHT22;3606;52.930;8.644;2024-03-22T09:33:34;11.20;99.90
7129;DHT22;3606;52.930;8.644;2024-03-22T09:36:00;11.20;99.90
7129;DHT22;3606;52.930;8.644;2024-03-22T09:38:25;11.30;99.90
7129;DHT22;3606;52.930;8.644;2024-03-22T09:40:51;11.30;99.90
7129;DHT22;3606;52.930;8.644;2024-03-22T09:43:20;11.30;99.90
7129;DHT22;3606;52.930;8.644;2024-03-22T09:45:50;11.30;99.90
7129;DHT22;3606;52.930;8.644;2024-03-22T09:48:19;11.30;99.90
7129;DHT22;3606;52.930;8.644;2024-03-22T09:50:48;11.30;99.90
7129;DHT22;3606;52.930;8.644;2024-03-22T09:53:18;11.30;99.90
7129;DHT22;3606;52.930;8.644;2024-03-22T09:55:48;11.30;99.90
7129;DHT22;3606;52.930;8.644;2024-03-22T09:58:14;11.30;99.90
7129;DHT22;3606;52.930;8.644;2024-03-22T10:00:42;11.30;99.90
7129;DHT22;3606;52.930;8.644;2024-03-22T10:03:08;11.30;99.90
7129;DHT22;3606;52.930;8.644;2024-03-22T10:05:35;11.30;99.90
7129;DHT22;3606;52.930;8.644;2024-03-22T10:08:01;11.20;99.90
7129;DHT22;3606;52.930;8.644;2024-03-22T10:10:27;11.10;99.90
7129;DHT22;3606;52.930;8.644;2024-03-22T10:12:52;11.00;99.90
7129;DHT22;3606;52.930;8.644;2024-03-22T10:15:18;10.90;99.90
7129;DHT22;3606;52.930;8.644;2024-03-22T10:17:45;10.90;99.90
7129;DHT22;3606;52.930;8.644;2024-03-22T10:20:13;10.90;99.90
7129;DHT22;3606;52.930;8.644;2024-03-22T10:22:43;10.80;99.90
7129;DHT22;3606;52.930;8.644;2024-03-22T10:25:10;10.80;99.90
7129;DHT22;3606;52.930;8.644;2024-03-22T10:27:38;10.80;99.90
7129;DHT22;3606;52.930;8.644;2024-03-22T10:30:08;10.80;99.90
7129;DHT22;3606;52.930;8.644;2024-03-22T10:32:34;10.80;99.90
7129;DHT22;3606;52.930;8.644;2024-03-22T10:35:02;10.90;99.90
7129;DHT22;3606;52.930;8.644;2024-03-22T10:37:31;11.10;99.90
7129;DHT22;3606;52.930;8.644;2024-03-22T10:39:58;11.20;99.90
7129;DHT22;3606;52.930;8.644;2024-03-22T10:42:26;11.20;99.90
7129;DHT22;3606;52.930;8.644;2024-03-22T10:44:51;11.20;99.90
7129;DHT22;3606;52.930;8.644;2024-03-22T10:47:18;11.40;99.90
7129;DHT22;3606;52.930;8.644;2024-03-22T10:49:48;11.40;99.90
7129;DHT22;3606;52.930;8.644;2024-03-22T10:52:16;11.30;99.90
7129;DHT22;3606;52.930;8.644;2024-03-22T10:54:45;11.30;99.90
7129;DHT22;3606;52.930;8.644;2024-03-22T10:57:15;11.40;99.90
7129;DHT22;3606;52.930;8.644;2024-03-22T10:59:41;11.30;99.90
7129;DHT22;3606;52.930;8.644;2024-03-22T11:02:11;11.40;99.90
7129;DHT22;3606;52.930;8.644;2024-03-22T11:04:36;11.40;99.90
7129;DHT22;3606;52.930;8.644;2024-03-22T11:07:02;11.40;99.90
7129;DHT22;3606;52.930;8.644;2024-03-22T11:09:29;11.30;99.90
7129;DHT22;3606;52.930;8.644;2024-03-22T11:11:56;11.30;99.90
7129;DHT22;3606;52.930;8.644;2024-03-22T11:14:26;11.20;99.90
7129;DHT22;3606;52.930;8.644;2024-03-22T11:16:52;11.20;99.90
7129;DHT22;3606;52.930;8.644;2024-03-22T11:19:20;11.20;99.90
7129;DHT22;3606;52.930;8.644;2024-03-22T11:21:46;11.20;99.90
7129;DHT22;3606;52.930;8.644;2024-03-22T11:24:12;11.20;99.90
7129;DHT22;3606;52.930;8.644;2024-03-22T11:26:37;11.20;99.90
7129;DHT22;3606;52.930;8.644;2024-03-22T11:29:03;11.20;99.90
7129;DHT22;3606;52.930;8.644;2024-03-22T11:31:29;11.30;99.90
7129;DHT22;3606;52.930;8.644;2024-03-22T11:33:55;11.30;99.90
7129;DHT22;3606;52.930;8.644;2024-03-22T11:36:22;11.40;99.90
7129;DHT22;3606;52.930;8.644;2024-03-22T11:38:47;11.40;99.90
7129;DHT22;3606;52.930;8.644;2024-03-22T11:41:20;11.40;99.90
7129;DHT22;3606;52.930;8.644;2024-03-22T11:43:48;11.40;99.90
7129;DHT22;3606;52.930;8.644;2024-03-22T11:46:15;11.30;99.90
7129;DHT22;3606;52.930;8.644;2024-03-22T11:48:41;11.30;99.90
7129;DHT22;3606;52.930;8.644;2024-03-22T11:51:10;11.40;99.90
7129;DHT22;3606;52.930;8.644;2024-03-22T11:53:36;11.30;99.90
7129;DHT22;3606;52.930;8.644;2024-03-22T11:56:04;11.30;99.90
7129;DHT22;3606;52.930;8.644;2024-03-22T11:58:30;11.30;99.90
7129;DHT22;3606;52.930;8.644;2024-03-22T12:00:58;11.30;99.90
7129;DHT22;3606;52.930;8.644;2024-03-22T12:03:25;11.30;99.90
7129;DHT22;3606;52.930;8.644;2024-03-22T12:05:53;11.30;99.90
7129;DHT22;3606;52.930;8.644;2024-03-22T12:08:19;11.40;99.90
7129;DHT22;3606;52.930;8.644;2024-03-22T12:10:45;11.60;99.90
7129;DHT22;3606;52.930;8.644;2024-03-22T12:13:10;11.60;99.90
7129;DHT22;3606;52.930;8.644;2024-03-22T12:15:36;11.70;99.90
7129;DHT22;3606;52.930;8.644;2024-03-22T12:18:02;11.80;99.90
7129;DHT22;3606;52.930;8.644;2024-03-22T12:20:28;11.70;99.90
7129;DHT22;3606;52.930;8.644;2024-03-22T12:22:55;11.70;99.90
7129;DHT22;3606;52.930;8.644;2024-03-22T12:25:20;11.60;99.90
7129;DHT22;3606;52.930;8.644;2024-03-22T12:27:49;11.60;99.90
7129;DHT22;3606;52.930;8.644;2024-03-22T12:30:14;11.50;99.90
7129;DHT22;3606;52.930;8.644;2024-03-22T12:32:40;11.60;99.90
7129;DHT22;3606;52.930;8.644;2024-03-22T12:35:06;11.50;99.90
7129;DHT22;3606;52.930;8.644;2024-03-22T12:37:33;11.50;99.90
7129;DHT22;3606;52.930;8.644;2024-03-22T12:39:59;11.50;99.90
7129;DHT22;3606;52.930;8.644;2024-03-22T12:42:24;11.50;99.90
7129;DHT22;3606;52.930;8.644;2024-03-22T12:44:50;11.40;99.90
7129;DHT22;3606;52.930;8.644;2024-03-22T12:47:15;11.50;99.90
7129;DHT22;3606;52.930;8.644;2024-03-22T12:49:41;11.40;99.90
7129;DHT22;3606;52.930;8.644;2024-03-22T12:52:07;11.40;99.90
7129;DHT22;3606;52.930;8.644;2024-03-22T12:54:33;11.40;99.90
7129;DHT22;3606;52.930;8.644;2024-03-22T12:56:58;11.30;99.90
7129;DHT22;3606;52.930;8.644;2024-03-22T12:59:24;11.30;99.90
7129;DHT22;3606;52.930;8.644;2024-03-22T13:01:49;11.50;99.90
7129;DHT22;3606;52.930;8.644;2024-03-22T13:04:15;11.60;99.90
7129;DHT22;3606;52.930;8.644;2024-03-22T13:06:43;11.50;99.90
7129;DHT22;3606;52.930;8.644;2024-03-22T13:09:08;11.50;99.90
7129;DHT22;3606;52.930;8.644;2024-03-22T13:11:35;11.50;99.90
7129;DHT22;3606;52.930;8.644;2024-03-22T13:14:01;11.50;99.90
7129;DHT22;3606;52.930;8.644;2024-03-22T13:16:26;11.50;99.90
7129;DHT22;3606;52.930;8.644;2024-03-22T13:18:53;11.40;99.90
7129;DHT22;3606;52.930;8.644;2024-03-22T13:21:18;11.30;99.90
7129;DHT22;3606;52.930;8.644;2024-03-22T13:23:44;11.40;99.90
7129;DHT22;3606;52.930;8.644;2024-03-22T13:26:10;11.30;99.90
7129;DHT22;3606;52.930;8.644;2024-03-22T13:28:36;11.30;99.90
7129;DHT22;3606;52.930;8.644;2024-03-22T13:31:05;11.30;99.90
7129;DHT22;3606;52.930;8.644;2024-03-22T13:33:34;11.30;99.90
7129;DHT22;3606;52.930;8.644;2024-03-22T13:36:01;11.40;99.90
7129;DHT22;3606;52.930;8.644;2024-03-22T13:38:26;11.40;99.90
7129;DHT22;3606;52.930;8.644;2024-03-22T13:40:56;11.30;99.90
7129;DHT22;3606;52.930;8.644;2024-03-22T13:43:23;11.40;99.90
7129;DHT22;3606;52.930;8.644;2024-03-22T13:45:52;11.40;99.90
7129;DHT22;3606;52.930;8.644;2024-03-22T13:48:22;11.40;99.90
7129;DHT22;3606;52.930;8.644;2024-03-22T13:50:52;11.40;99.90
7129;DHT22;3606;52.930;8.644;2024-03-22T13:53:18;11.60;99.90
7129;DHT22;3606;52.930;8.644;2024-03-22T13:55:44;11.70;99.90
7129;DHT22;3606;52.930;8.644;2024-03-22T13:58:09;11.80;99.90
7129;DHT22;3606;52.930;8.644;2024-03-22T14:00:35;11.80;99.90
7129;DHT22;3606;52.930;8.644;2024-03-22T14:03:01;11.70;99.90
7129;DHT22;3606;52.930;8.644;2024-03-22T14:05:27;11.70;99.90
7129;DHT22;3606;52.930;8.644;2024-03-22T14:07:53;11.60;99.90
7129;DHT22;3606;52.930;8.644;2024-03-22T14:10:18;11.50;99.90
7129;DHT22;3606;52.930;8.644;2024-03-22T14:12:45;11.40;99.90
7129;DHT22;3606;52.930;8.644;2024-03-22T14:15:11;11.40;99.90
7129;DHT22;3606;52.930;8.644;2024-03-22T14:17:37;11.40;99.90
7129;DHT22;3606;52.930;8.644;2024-03-22T14:20:03;11.60;99.90
7129;DHT22;3606;52.930;8.644;2024-03-22T14:22:38;11.70;99.90
7129;DHT22;3606;52.930;8.644;2024-03-22T14:25:04;11.80;99.90
7129;DHT22;3606;52.930;8.644;2024-03-22T14:27:30;11.80;99.90
7129;DHT22;3606;52.930;8.644;2024-03-22T14:29:55;11.80;99.90
7129;DHT22;3606;52.930;8.644;2024-03-22T14:32:21;11.80;99.90
7129;DHT22;3606;52.930;8.644;2024-03-22T14:34:46;11.70;99.90
7129;DHT22;3606;52.930;8.644;2024-03-22T14:37:12;11.70;99.90
7129;DHT22;3606;52.930;8.644;2024-03-22T14:39:38;11.60;99.90
7129;DHT22;3606;52.930;8.644;2024-03-22T14:42:03;11.50;99.90
7129;DHT22;3606;52.930;8.644;2024-03-22T14:44:30;11.40;99.90
7129;DHT22;3606;52.930;8.644;2024-03-22T14:46:56;11.40;99.90
7129;DHT22;3606;52.930;8.644;2024-03-22T14:49:24;11.30;99.90
7129;DHT22;3606;52.930;8.644;2024-03-22T14:51:50;11.30;99.90
7129;DHT22;3606;52.930;8.644;2024-03-22T14:54:16;11.20;99.90
7129;DHT22;3606;52.930;8.644;2024-03-22T14:56:42;11.20;99.90
7129;DHT22;3606;52.930;8.644;2024-03-22T14:59:07;11.10;99.90
7129;DHT22;3606;52.930;8.644;2024-03-22T15:01:33;11.10;99.90
7129;DHT22;3606;52.930;8.644;2024-03-22T15:04:00;11.00;99.90
7129;DHT22;3606;52.930;8.644;2024-03-22T15:06:26;10.90;99.90
7129;DHT22;3606;52.930;8.644;2024-03-22T15:08:54;10.90;99.90
7129;DHT22;3606;52.930;8.644;2024-03-22T15:11:20;10.90;99.90
7129;DHT22;3606;52.930;8.644;2024-03-22T15:13:46;10.90;99.90
7129;DHT22;3606;52.930;8.644;2024-03-22T15:16:12;10.80;99.90
7129;DHT22;3606;52.930;8.644;2024-03-22T15:18:38;10.80;99.90
7129;DHT22;3606;52.930;8.644;2024-03-22T15:21:07;10.70;99.90
7129;DHT22;3606;52.930;8.644;2024-03-22T15:23:33;10.60;99.90
7129;DHT22;3606;52.930;8.644;2024-03-22T15:25:58;10.60;99.90
7129;DHT22;3606;52.930;8.644;2024-03-22T15:28:24;10.50;99.90
7129;DHT22;3606;52.930;8.644;2024-03-22T15:30:49;10.50;99.90
7129;DHT22;3606;52.930;8.644;2024-03-22T15:33:15;10.50;99.90
7129;DHT22;3606;52.930;8.644;2024-03-22T15:35:42;10.40;99.90
7129;DHT22;3606;52.930;8.644;2024-03-22T15:38:13;10.50;99.90
7129;DHT22;3606;52.930;8.644;2024-03-22T15:40:38;10.40;99.90
7129;DHT22;3606;52.930;8.644;2024-03-22T15:43:04;10.20;99.90
7129;DHT22;3606;52.930;8.644;2024-03-22T15:45:36;10.10;99.90
7129;DHT22;3606;52.930;8.644;2024-03-22T15:48:04;9.90;99.90
7129;DHT22;3606;52.930;8.644;2024-03-22T15:50:33;9.80;99.90
7129;DHT22;3606;52.930;8.644;2024-03-22T15:52:59;9.70;99.90
7129;DHT22;3606;52.930;8.644;2024-03-22T15:55:25;9.70;99.90
7129;DHT22;3606;52.930;8.644;2024-03-22T15:57:50;9.60;99.90